createdAt,value
2022-10-07T00:00:51.063Z,96687
2022-10-07T00:02:01.112Z,96680
2022-10-07T00:03:10.000Z,96685
2022-10-07T00:04:19.989Z,96683
2022-10-07T00:05:29.014Z,96685
2022-10-07T00:06:38.044Z,96680
2022-10-07T00:07:48.058Z,96680
2022-10-07T00:08:56.066Z,96676
2022-10-07T00:10:05.100Z,96674
2022-10-07T00:11:15.072Z,96675
2022-10-07T00:12:23.078Z,96677
2022-10-07T00:13:32.131Z,96674
2022-10-07T00:14:42.072Z,96676
2022-10-07T00:15:51.070Z,96674
2022-10-07T00:17:01.112Z,96670
2022-10-07T00:18:10.051Z,96670
2022-10-07T00:19:19.039Z,96670
2022-10-07T00:20:29.048Z,96666
2022-10-07T00:21:38.068Z,96661
2022-10-07T00:22:47.067Z,96657
2022-10-07T00:23:56.052Z,96660
2022-10-07T00:25:06.134Z,96657
2022-10-07T00:26:16.177Z,96659
2022-10-07T00:27:25.183Z,96660
2022-10-07T00:28:34.263Z,96654
2022-10-07T00:29:44.139Z,96653
2022-10-07T00:30:53.207Z,96649
2022-10-07T00:32:02.123Z,96649
2022-10-07T00:33:11.109Z,96647
2022-10-07T00:34:20.069Z,96645
2022-10-07T00:35:29.983Z,96639
2022-10-07T00:36:38.810Z,96638
2022-10-07T00:37:47.841Z,96636
2022-10-07T00:38:57.343Z,96639
2022-10-07T00:40:07.034Z,96637
2022-10-07T00:41:16.711Z,96640
2022-10-07T00:42:25.455Z,96634
2022-10-07T00:43:35.167Z,96632
2022-10-07T00:44:44.893Z,96636
2022-10-07T00:45:55.651Z,96635
2022-10-07T00:47:05.258Z,96632
2022-10-07T00:48:14.134Z,96628
2022-10-07T00:49:23.873Z,96629
2022-10-07T00:50:33.577Z,96625
2022-10-07T00:51:41.249Z,96622
2022-10-07T00:52:50.924Z,96623
2022-10-07T00:53:59.624Z,96623
2022-10-07T00:55:08.296Z,96621
2022-10-07T00:56:16.972Z,96616
2022-10-07T00:57:23.641Z,96617
2022-10-07T00:58:32.318Z,96617
2022-10-07T00:59:42.161Z,96611
2022-10-07T01:00:50.962Z,96611
2022-10-07T01:02:00.596Z,96610
2022-10-07T01:03:10.207Z,96612
2022-10-07T01:04:18.886Z,96610
2022-10-07T01:05:28.755Z,96610
2022-10-07T01:06:37.425Z,96607
2022-10-07T01:07:46.705Z,96607
2022-10-07T01:08:56.797Z,96604
2022-10-07T01:10:06.465Z,96607
2022-10-07T01:11:15.170Z,96602
2022-10-07T01:12:24.856Z,96601
2022-10-07T01:13:33.540Z,96602
2022-10-07T01:14:42.205Z,96600
2022-10-07T01:15:50.888Z,96600
2022-10-07T01:17:00.659Z,96598
2022-10-07T01:18:10.274Z,96601
2022-10-07T01:19:19.946Z,96599
2022-10-07T01:20:29.604Z,96598
2022-10-07T01:21:39.317Z,96590
2022-10-07T01:22:48.014Z,96594
2022-10-07T01:23:56.683Z,96594
2022-10-07T01:25:05.374Z,96589
2022-10-07T01:26:14.082Z,96592
2022-10-07T01:27:23.833Z,96591
2022-10-07T01:28:32.579Z,96589
2022-10-07T01:29:42.207Z,96589
2022-10-07T01:30:51.991Z,96587
2022-10-07T01:31:59.621Z,96585
2022-10-07T01:33:08.335Z,96585
2022-10-07T01:34:18.086Z,96582
2022-10-07T01:35:26.774Z,96582
2022-10-07T01:36:36.461Z,96577
2022-10-07T01:37:45.440Z,96580
2022-10-07T01:38:53.815Z,96584
2022-10-07T01:40:03.531Z,96580
2022-10-07T01:41:12.260Z,96573
2022-10-07T01:42:20.950Z,96577
2022-10-07T01:43:29.628Z,96580
2022-10-07T01:44:38.309Z,96581
2022-10-07T01:45:48.078Z,96577
2022-10-07T01:46:56.732Z,96568
2022-10-07T01:48:06.409Z,96572
2022-10-07T01:49:16.114Z,96569
2022-10-07T01:50:23.767Z,96570
2022-10-07T01:51:32.584Z,96570
2022-10-07T01:52:41.257Z,96570
2022-10-07T01:53:49.981Z,96568
2022-10-07T01:54:59.684Z,96567
2022-10-07T01:56:12.048Z,96566
2022-10-07T01:57:17.990Z,96568
2022-10-07T01:58:27.678Z,96566
2022-10-07T01:59:35.424Z,96564
2022-10-07T02:00:45.104Z,96562
2022-10-07T02:01:53.906Z,96564
2022-10-07T02:03:02.629Z,96561
2022-10-07T02:04:12.313Z,96560
2022-10-07T02:05:21.009Z,96562
2022-10-07T02:06:29.714Z,96562
2022-10-07T02:07:39.391Z,96560
2022-10-07T02:08:47.212Z,96559
2022-10-07T02:09:55.879Z,96557
2022-10-07T02:11:04.600Z,96553
2022-10-07T02:12:13.296Z,96551
2022-10-07T02:13:22.978Z,96551
2022-10-07T02:14:31.782Z,96551
2022-10-07T02:15:41.623Z,96549
2022-10-07T02:16:51.298Z,96547
2022-10-07T02:17:59.968Z,96547
2022-10-07T02:19:08.698Z,96544
2022-10-07T02:20:17.446Z,96546
2022-10-07T02:21:27.190Z,96545
2022-10-07T02:22:36.833Z,96543
2022-10-07T02:23:44.523Z,96546
2022-10-07T02:24:54.286Z,96543
2022-10-07T02:26:04.031Z,96543
2022-10-07T02:27:12.729Z,96548
2022-10-07T02:28:21.485Z,96545
2022-10-07T02:29:31.166Z,96543
2022-10-07T02:30:39.838Z,96542
2022-10-07T02:31:49.507Z,96543
2022-10-07T02:32:57.271Z,96544
2022-10-07T02:34:05.944Z,96540
2022-10-07T02:35:16.630Z,96538
2022-10-07T02:36:24.311Z,96538
2022-10-07T02:37:33.039Z,96539
2022-10-07T02:38:42.709Z,96535
2022-10-07T02:39:51.384Z,96537
2022-10-07T02:41:00.453Z,96533
2022-10-07T02:42:09.156Z,96530
2022-10-07T02:43:17.840Z,96527
2022-10-07T02:44:27.529Z,96531
2022-10-07T02:45:37.215Z,96527
2022-10-07T02:46:46.999Z,96528
2022-10-07T02:47:55.590Z,96526
2022-10-07T02:49:04.306Z,96528
2022-10-07T02:50:12.984Z,96527
2022-10-07T02:51:22.651Z,96527
2022-10-07T02:52:32.352Z,96525
2022-10-07T02:53:40.049Z,96527
2022-10-07T02:54:48.925Z,96521
2022-10-07T02:55:58.702Z,96522
2022-10-07T02:57:07.394Z,96524
2022-10-07T02:58:16.065Z,96525
2022-10-07T02:59:25.741Z,96523
2022-10-07T03:00:34.478Z,96526
2022-10-07T03:01:43.231Z,96527
2022-10-07T03:02:51.853Z,96530
2022-10-07T03:04:00.644Z,96530
2022-10-07T03:05:10.210Z,96523
2022-10-07T03:06:18.025Z,96525
2022-10-07T03:07:26.735Z,96521
2022-10-07T03:08:35.430Z,96521
2022-10-07T03:09:45.152Z,96516
2022-10-07T03:10:54.817Z,96522
2022-10-07T03:12:04.664Z,96518
2022-10-07T03:13:13.353Z,96516
2022-10-07T03:14:23.033Z,96519
2022-10-07T03:15:31.712Z,96518
2022-10-07T03:16:41.393Z,96519
2022-10-07T03:17:51.081Z,96522
2022-10-07T03:18:59.743Z,96517
2022-10-07T03:20:09.429Z,96519
2022-10-07T03:21:19.160Z,96509
2022-10-07T03:22:27.872Z,96515
2022-10-07T03:23:37.578Z,96514
2022-10-07T03:24:46.272Z,96516
2022-10-07T03:25:55.087Z,96512
2022-10-07T03:27:04.665Z,96516
2022-10-07T03:28:14.367Z,96517
2022-10-07T03:29:24.084Z,96514
2022-10-07T03:30:32.785Z,96512
2022-10-07T03:31:42.552Z,96516
2022-10-07T03:32:52.206Z,96506
2022-10-07T03:34:01.986Z,96506
2022-10-07T03:35:10.891Z,96508
2022-10-07T03:36:19.642Z,96506
2022-10-07T03:37:28.313Z,96504
2022-10-07T03:38:38.132Z,96502
2022-10-07T03:39:45.870Z,96500
2022-10-07T03:40:55.573Z,96501
2022-10-07T03:42:05.301Z,96503
2022-10-07T03:43:12.963Z,96504
2022-10-07T03:44:21.631Z,96500
2022-10-07T03:45:30.345Z,96504
2022-10-07T03:46:39.072Z,96499
2022-10-07T03:47:48.742Z,96501
2022-10-07T03:48:56.469Z,96502
2022-10-07T03:50:05.265Z,96498
2022-10-07T03:51:14.046Z,96498
2022-10-07T03:52:22.759Z,96499
2022-10-07T03:53:32.480Z,96500
2022-10-07T03:54:40.176Z,96499
2022-10-07T03:55:48.879Z,96495
2022-10-07T03:56:58.703Z,96502
2022-10-07T03:58:06.501Z,96501
2022-10-07T03:59:16.171Z,96501
2022-10-07T04:00:25.875Z,96497
2022-10-07T04:01:33.578Z,96503
2022-10-07T04:02:43.949Z,96495
2022-10-07T04:03:52.689Z,96493
2022-10-07T04:05:01.368Z,96491
2022-10-07T04:06:12.079Z,96494
2022-10-07T04:07:20.775Z,96491
2022-10-07T04:08:32.374Z,96489
2022-10-07T04:09:40.251Z,96495
2022-10-07T04:10:47.949Z,96492
2022-10-07T04:11:57.628Z,96494
2022-10-07T04:13:06.545Z,96494
2022-10-07T04:14:16.723Z,96492
2022-10-07T04:15:26.467Z,96491
2022-10-07T04:16:38.183Z,96487
2022-10-07T04:17:45.264Z,96487
2022-10-07T04:18:54.770Z,96483
2022-10-07T04:20:03.621Z,96486
2022-10-07T04:21:12.582Z,96486
2022-10-07T04:22:21.325Z,96482
2022-10-07T04:23:31.077Z,96485
2022-10-07T04:24:41.056Z,96484
2022-10-07T04:25:50.313Z,96481
2022-10-07T04:26:59.016Z,96481
2022-10-07T04:28:08.805Z,96484
2022-10-07T04:29:17.426Z,96478
2022-10-07T04:30:26.153Z,96477
2022-10-07T04:31:35.993Z,96481
2022-10-07T04:32:44.734Z,96477
2022-10-07T04:33:54.479Z,96468
2022-10-07T04:35:02.187Z,96468
2022-10-07T04:36:11.124Z,96468
2022-10-07T04:37:20.890Z,96472
2022-10-07T04:38:28.866Z,96470
2022-10-07T04:39:59.526Z,96470
2022-10-07T04:40:49.366Z,96465
2022-10-07T04:41:57.022Z,96464
2022-10-07T04:43:06.975Z,96462
2022-10-07T04:44:16.938Z,96462
2022-10-07T04:45:27.034Z,96457
2022-10-07T04:46:34.843Z,96460
2022-10-07T04:47:43.765Z,96458
2022-10-07T04:48:53.257Z,96457
2022-10-07T04:50:01.026Z,96460
2022-10-07T04:51:09.729Z,96456
2022-10-07T04:52:18.436Z,96453
2022-10-07T04:53:27.108Z,96458
2022-10-07T04:54:36.859Z,96456
2022-10-07T04:55:44.662Z,96459
2022-10-07T04:56:53.365Z,96455
2022-10-07T04:58:03.064Z,96455
2022-10-07T04:59:11.787Z,96453
2022-10-07T05:00:22.501Z,96454
2022-10-07T05:01:31.338Z,96458
2022-10-07T05:02:41.191Z,96456
2022-10-07T05:03:50.863Z,96457
2022-10-07T05:04:59.576Z,96453
2022-10-07T05:06:09.274Z,96456
2022-10-07T05:07:18.999Z,96454
2022-10-07T05:08:27.685Z,96450
2022-10-07T05:09:37.368Z,96453
2022-10-07T05:10:46.033Z,96454
2022-10-07T05:11:54.744Z,96455
2022-10-07T05:13:04.534Z,96453
2022-10-07T05:14:14.209Z,96454
2022-10-07T05:15:23.928Z,96457
2022-10-07T05:16:33.703Z,96458
2022-10-07T05:17:42.561Z,96453
2022-10-07T05:18:52.080Z,96455
2022-10-07T05:20:01.751Z,96457
2022-10-07T05:21:10.458Z,96453
2022-10-07T05:22:20.177Z,96456
2022-10-07T05:23:28.746Z,96453
2022-10-07T05:24:37.609Z,96453
2022-10-07T05:25:47.305Z,96456
2022-10-07T05:26:56.005Z,96458
2022-10-07T05:28:03.737Z,96455
2022-10-07T05:29:12.399Z,96450
2022-10-07T05:30:22.227Z,96455
2022-10-07T05:31:31.954Z,96455
2022-10-07T05:32:40.602Z,96457
2022-10-07T05:33:49.267Z,96455
2022-10-07T05:34:58.962Z,96455
2022-10-07T05:36:06.639Z,96455
2022-10-07T05:37:15.319Z,96453
2022-10-07T05:38:23.985Z,96452
2022-10-07T05:39:32.678Z,96452
2022-10-07T05:40:41.364Z,96456
2022-10-07T05:41:49.071Z,96457
2022-10-07T05:42:57.796Z,96452
2022-10-07T05:44:07.495Z,96451
2022-10-07T05:45:16.220Z,96451
2022-10-07T05:46:24.889Z,96453
2022-10-07T05:47:33.642Z,96450
2022-10-07T05:48:42.309Z,96451
2022-10-07T05:49:51.987Z,96454
2022-10-07T05:51:01.701Z,96453
2022-10-07T05:52:10.358Z,96452
2022-10-07T05:53:20.092Z,96448
2022-10-07T05:54:28.886Z,96453
2022-10-07T05:55:40.196Z,96449
2022-10-07T05:56:48.263Z,96450
2022-10-07T05:57:56.898Z,96450
2022-10-07T05:59:06.583Z,96447
2022-10-07T06:00:14.251Z,96444
2022-10-07T06:01:23.906Z,96444
2022-10-07T06:02:33.755Z,96452
2022-10-07T06:03:42.261Z,96449
2022-10-07T06:04:51.998Z,96449
2022-10-07T06:06:00.671Z,96452
2022-10-07T06:07:10.391Z,96454
2022-10-07T06:08:21.029Z,96448
2022-10-07T06:09:29.702Z,96450
2022-10-07T06:10:39.419Z,96451
2022-10-07T06:11:49.097Z,96447
2022-10-07T06:12:58.814Z,96447
2022-10-07T06:14:07.482Z,96449
2022-10-07T06:15:16.264Z,96453
2022-10-07T06:16:26.160Z,96456
2022-10-07T06:17:35.792Z,96456
2022-10-07T06:18:44.502Z,96457
2022-10-07T06:19:53.186Z,96461
2022-10-07T06:21:02.887Z,96461
2022-10-07T06:22:12.614Z,96455
2022-10-07T06:23:20.310Z,96457
2022-10-07T06:24:28.955Z,96457
2022-10-07T06:25:37.605Z,96457
2022-10-07T06:26:47.332Z,96457
2022-10-07T06:27:56.321Z,96459
2022-10-07T06:29:03.733Z,96464
2022-10-07T06:30:13.417Z,96458
2022-10-07T06:31:22.153Z,96456
2022-10-07T06:32:30.880Z,96460
2022-10-07T06:33:41.771Z,96454
2022-10-07T06:34:50.676Z,96455
2022-10-07T06:36:04.260Z,96459
2022-10-07T06:37:10.469Z,96455
2022-10-07T06:38:20.335Z,96457
2022-10-07T06:39:29.226Z,96455
2022-10-07T06:40:38.036Z,96457
2022-10-07T06:41:47.714Z,96454
2022-10-07T06:42:55.435Z,96457
2022-10-07T06:44:04.120Z,96457
2022-10-07T06:45:12.836Z,96458
2022-10-07T06:46:21.593Z,96457
2022-10-07T06:47:30.261Z,96461
2022-10-07T06:48:37.927Z,96465
2022-10-07T06:49:46.606Z,96458
2022-10-07T06:50:56.354Z,96459
2022-10-07T06:52:05.043Z,96459
2022-10-07T06:53:14.739Z,96464
2022-10-07T06:54:23.402Z,96459
2022-10-07T06:55:32.232Z,96463
2022-10-07T06:56:41.899Z,96461
2022-10-07T06:57:49.604Z,96460
2022-10-07T06:58:58.326Z,96465
2022-10-07T07:00:08.055Z,96464
2022-10-07T07:01:15.798Z,96459
2022-10-07T07:02:25.931Z,96458
2022-10-07T07:03:34.104Z,96457
2022-10-07T07:04:42.855Z,96458
2022-10-07T07:05:54.448Z,96461
2022-10-07T07:07:02.143Z,96458
2022-10-07T07:08:12.007Z,96456
2022-10-07T07:09:21.710Z,96461
2022-10-07T07:10:31.388Z,96459
2022-10-07T07:11:40.146Z,96458
2022-10-07T07:12:50.528Z,96462
2022-10-07T07:13:59.818Z,96461
2022-10-07T07:15:09.747Z,96460
2022-10-07T07:16:19.523Z,96460
2022-10-07T07:17:29.206Z,96459
2022-10-07T07:18:39.097Z,96458
2022-10-07T07:19:48.007Z,96459
2022-10-07T07:20:56.950Z,96462
2022-10-07T07:22:06.025Z,96461
2022-10-07T07:23:14.973Z,96463
2022-10-07T07:24:24.939Z,96456
2022-10-07T07:25:33.808Z,96459
2022-10-07T07:26:42.664Z,96461
2022-10-07T07:27:55.385Z,96462
2022-10-07T07:29:01.252Z,96456
2022-10-07T07:30:10.535Z,96461
2022-10-07T07:31:19.546Z,96457
2022-10-07T07:32:29.205Z,96456
2022-10-07T07:33:38.903Z,96456
2022-10-07T07:34:46.660Z,96459
2022-10-07T07:35:55.283Z,96460
2022-10-07T07:37:05.007Z,96460
2022-10-07T07:38:12.679Z,96457
2022-10-07T07:39:22.343Z,96460
2022-10-07T07:40:32.030Z,96459
2022-10-07T07:41:40.740Z,96458
2022-10-07T07:42:50.590Z,96457
2022-10-07T07:43:59.229Z,96455
2022-10-07T07:45:08.881Z,96453
2022-10-07T07:46:18.609Z,96453
2022-10-07T07:47:27.255Z,96453
2022-10-07T07:48:36.991Z,96453
2022-10-07T07:49:45.689Z,96453
2022-10-07T07:50:54.384Z,96453
2022-10-07T07:52:04.285Z,96450
2022-10-07T07:53:12.986Z,96452
2022-10-07T07:54:21.734Z,96451
2022-10-07T07:55:31.431Z,96450
2022-10-07T07:56:40.084Z,96453
2022-10-07T07:57:48.907Z,96448
2022-10-07T07:58:58.642Z,96448
2022-10-07T08:00:07.282Z,96447
2022-10-07T08:01:17.052Z,96450
2022-10-07T08:02:26.708Z,96447
2022-10-07T08:03:35.339Z,96446
2022-10-07T08:04:45.065Z,96445
2022-10-07T08:05:52.822Z,96445
2022-10-07T08:07:01.518Z,96448
2022-10-07T08:08:10.178Z,96446
2022-10-07T08:09:19.851Z,96444
2022-10-07T08:10:29.609Z,96445
2022-10-07T08:11:38.378Z,96443
2022-10-07T08:12:48.080Z,96443
2022-10-07T08:13:57.825Z,96444
2022-10-07T08:15:06.509Z,96445
2022-10-07T08:16:16.186Z,96442
2022-10-07T08:17:24.903Z,96447
2022-10-07T08:18:33.589Z,96442
2022-10-07T08:19:43.308Z,96445
2022-10-07T08:20:51.988Z,96437
2022-10-07T08:22:01.756Z,96440
2022-10-07T08:23:12.463Z,96440
2022-10-07T08:24:22.169Z,96438
2022-10-07T08:25:29.835Z,96444
2022-10-07T08:26:38.527Z,96448
2022-10-07T08:27:47.885Z,96442
2022-10-07T08:28:56.930Z,96441
2022-10-07T08:30:05.620Z,96441
2022-10-07T08:31:14.433Z,96440
2022-10-07T08:32:24.001Z,96441
2022-10-07T08:33:32.679Z,96437
2022-10-07T08:34:42.488Z,96438
2022-10-07T08:35:52.447Z,96433
2022-10-07T08:37:01.320Z,96433
2022-10-07T08:38:14.353Z,96436
2022-10-07T08:39:20.645Z,96428
2022-10-07T08:40:30.345Z,96427
2022-10-07T08:41:38.015Z,96427
2022-10-07T08:42:46.726Z,96426
2022-10-07T08:44:00.536Z,96428
2022-10-07T08:45:06.078Z,96426
2022-10-07T08:46:14.855Z,96423
2022-10-07T08:47:23.533Z,96421
2022-10-07T08:48:32.216Z,96420
2022-10-07T08:49:41.955Z,96424
2022-10-07T08:50:50.682Z,96420
2022-10-07T08:52:00.484Z,96421
2022-10-07T08:53:10.217Z,96423
2022-10-07T08:54:19.933Z,96423
2022-10-07T08:55:28.611Z,96417
2022-10-07T08:56:37.280Z,96424
2022-10-07T08:57:47.317Z,96420
2022-10-07T08:58:56.736Z,96421
2022-10-07T09:00:04.552Z,96421
2022-10-07T09:01:14.508Z,96421
2022-10-07T09:02:24.432Z,96419
2022-10-07T09:03:33.272Z,96419
2022-10-07T09:04:41.926Z,96418
2022-10-07T09:05:50.621Z,96420
2022-10-07T09:06:59.330Z,96417
2022-10-07T09:08:08.019Z,96410
2022-10-07T09:09:16.737Z,96411
2022-10-07T09:10:25.450Z,96409
2022-10-07T09:11:35.151Z,96411
2022-10-07T09:12:43.828Z,96411
2022-10-07T09:13:52.498Z,96409
2022-10-07T09:15:01.357Z,96406
2022-10-07T09:16:10.108Z,96412
2022-10-07T09:17:19.783Z,96408
2022-10-07T09:18:27.446Z,96412
2022-10-07T09:19:36.322Z,96412
2022-10-07T09:20:46.017Z,96406
2022-10-07T09:21:55.987Z,96412
2022-10-07T09:23:06.687Z,96413
2022-10-07T09:24:16.414Z,96412
2022-10-07T09:25:25.070Z,96409
2022-10-07T09:26:34.856Z,96411
2022-10-07T09:27:43.793Z,96410
2022-10-07T09:28:52.352Z,96407
2022-10-07T09:30:02.124Z,96402
2022-10-07T09:31:09.899Z,96404
2022-10-07T09:32:18.556Z,96398
2022-10-07T09:33:27.247Z,96396
2022-10-07T09:34:35.998Z,96390
2022-10-07T09:35:45.752Z,96388
2022-10-07T09:36:55.374Z,96387
2022-10-07T09:38:04.096Z,96389
2022-10-07T09:39:13.801Z,96388
2022-10-07T09:40:22.516Z,96388
2022-10-07T09:41:32.262Z,96385
2022-10-07T09:42:41.904Z,96390
2022-10-07T09:43:50.644Z,96390
2022-10-07T09:45:00.433Z,96391
2022-10-07T09:46:08.139Z,96391
2022-10-07T09:47:16.821Z,96388
2022-10-07T09:48:26.517Z,96392
2022-10-07T09:49:35.240Z,96396
2022-10-07T09:50:43.988Z,96388
2022-10-07T09:51:52.871Z,96386
2022-10-07T09:53:00.474Z,96392
2022-10-07T09:54:10.198Z,96385
2022-10-07T09:55:17.929Z,96383
2022-10-07T09:56:25.631Z,96391
2022-10-07T09:57:35.322Z,96386
2022-10-07T09:58:43.009Z,96389
2022-10-07T09:59:51.720Z,96382
2022-10-07T10:01:01.543Z,96383
2022-10-07T10:02:10.297Z,96380
2022-10-07T10:03:20.026Z,96378
2022-10-07T10:04:29.664Z,96379
2022-10-07T10:05:39.395Z,96381
2022-10-07T10:06:49.122Z,96382
2022-10-07T10:07:58.902Z,96379
2022-10-07T10:09:08.518Z,96381
2022-10-07T10:10:18.188Z,96379
2022-10-07T10:11:27.904Z,96375
2022-10-07T10:12:38.255Z,96375
2022-10-07T10:13:47.283Z,96374
2022-10-07T10:14:57.002Z,96379
2022-10-07T10:16:06.928Z,96381
2022-10-07T10:17:16.472Z,96380
2022-10-07T10:18:25.334Z,96375
2022-10-07T10:19:36.380Z,96378
2022-10-07T10:20:42.719Z,96377
2022-10-07T10:21:52.418Z,96375
2022-10-07T10:23:01.186Z,96376
2022-10-07T10:24:09.864Z,96375
2022-10-07T10:25:19.653Z,96374
2022-10-07T10:26:33.531Z,96371
2022-10-07T10:27:37.011Z,96374
2022-10-07T10:28:46.755Z,96366
2022-10-07T10:29:56.441Z,96369
2022-10-07T10:31:07.189Z,96367
2022-10-07T10:32:15.794Z,96363
2022-10-07T10:33:25.479Z,96359
2022-10-07T10:34:35.175Z,96360
2022-10-07T10:35:42.884Z,96362
2022-10-07T10:36:52.623Z,96359
2022-10-07T10:37:59.321Z,96357
2022-10-07T10:39:09.020Z,96352
2022-10-07T10:40:18.999Z,96349
2022-10-07T10:41:27.438Z,96350
2022-10-07T10:42:37.134Z,96350
2022-10-07T10:43:45.824Z,96348
2022-10-07T10:44:55.514Z,96347
2022-10-07T10:46:05.252Z,96346
2022-10-07T10:47:12.895Z,96346
2022-10-07T10:48:21.585Z,96344
2022-10-07T10:49:30.280Z,96344
2022-10-07T10:50:38.968Z,96345
2022-10-07T10:51:48.739Z,96346
2022-10-07T10:52:57.442Z,96341
2022-10-07T10:54:06.171Z,96340
2022-10-07T10:55:15.970Z,96339
2022-10-07T10:56:23.658Z,96338
2022-10-07T10:57:32.351Z,96332
2022-10-07T10:58:42.050Z,96333
2022-10-07T10:59:50.761Z,96331
2022-10-07T11:01:00.695Z,96332
2022-10-07T11:02:08.416Z,96325
2022-10-07T11:03:18.123Z,96327
2022-10-07T11:04:27.811Z,96317
2022-10-07T11:05:36.506Z,96321
2022-10-07T11:06:44.210Z,96319
2022-10-07T11:07:52.908Z,96322
2022-10-07T11:09:02.621Z,96322
2022-10-07T11:10:11.364Z,96316
2022-10-07T11:11:20.146Z,96318
2022-10-07T11:12:28.787Z,96314
2022-10-07T11:13:38.512Z,96319
2022-10-07T11:14:48.212Z,96314
2022-10-07T11:15:58.927Z,96307
2022-10-07T11:17:07.602Z,96306
2022-10-07T11:18:17.284Z,96308
2022-10-07T11:19:26.958Z,96309
2022-10-07T11:20:34.640Z,96304
2022-10-07T11:21:42.415Z,96304
2022-10-07T11:22:52.122Z,96304
2022-10-07T11:23:59.856Z,96301
2022-10-07T11:25:09.516Z,96300
2022-10-07T11:26:19.219Z,96299
2022-10-07T11:27:29.182Z,96297
2022-10-07T11:28:38.868Z,96296
2022-10-07T11:29:47.486Z,96292
2022-10-07T11:30:57.192Z,96296
2022-10-07T11:32:06.883Z,96294
2022-10-07T11:33:16.626Z,96290
2022-10-07T11:34:25.311Z,96290
2022-10-07T11:35:35.083Z,96288
2022-10-07T11:36:43.827Z,96287
2022-10-07T11:37:53.510Z,96288
2022-10-07T11:39:02.228Z,96288
2022-10-07T11:40:10.887Z,96286
2022-10-07T11:41:19.573Z,96282
2022-10-07T11:42:29.261Z,96281
2022-10-07T11:43:37.983Z,96280
2022-10-07T11:44:47.655Z,96279
2022-10-07T11:45:57.353Z,96280
2022-10-07T11:47:08.230Z,96279
2022-10-07T11:48:16.086Z,96275
2022-10-07T11:49:24.977Z,96273
2022-10-07T11:50:34.954Z,96275
2022-10-07T11:51:43.100Z,96267
2022-10-07T11:52:52.023Z,96265
2022-10-07T11:54:01.551Z,96259
2022-10-07T11:55:10.566Z,96254
2022-10-07T11:56:19.532Z,96257
2022-10-07T11:57:28.690Z,96253
2022-10-07T11:58:37.623Z,96251
2022-10-07T11:59:47.530Z,96252
2022-10-07T12:00:55.479Z,96249
2022-10-07T12:02:05.038Z,96246
2022-10-07T12:03:15.674Z,96240
2022-10-07T12:04:24.845Z,96241
2022-10-07T12:05:34.514Z,96239
2022-10-07T12:06:42.414Z,96243
2022-10-07T12:07:51.205Z,96239
2022-10-07T12:09:01.078Z,96236
2022-10-07T12:10:09.893Z,96233
2022-10-07T12:11:18.737Z,96230
2022-10-07T12:12:27.566Z,96234
2022-10-07T12:13:36.332Z,96228
2022-10-07T12:14:46.149Z,96225
2022-10-07T12:15:53.907Z,96232
2022-10-07T12:17:02.742Z,96229
2022-10-07T12:18:13.750Z,96221
2022-10-07T12:19:23.938Z,96221
2022-10-07T12:20:31.347Z,96218
2022-10-07T12:21:41.141Z,96218
2022-10-07T12:22:49.801Z,96221
2022-10-07T12:23:59.525Z,96213
2022-10-07T12:25:11.008Z,96214
2022-10-07T12:26:16.631Z,96211
2022-10-07T12:27:26.326Z,96212
2022-10-07T12:28:34.442Z,96212
2022-10-07T12:29:43.995Z,96213
2022-10-07T12:30:52.954Z,96205
2022-10-07T12:32:02.745Z,96204
2022-10-07T12:33:13.439Z,96206
2022-10-07T12:34:21.167Z,96203
2022-10-07T12:35:30.920Z,96207
2022-10-07T12:36:39.758Z,96194
2022-10-07T12:37:48.502Z,96200
2022-10-07T12:38:58.195Z,96194
2022-10-07T12:40:06.967Z,96199
2022-10-07T12:41:15.923Z,96198
2022-10-07T12:42:24.988Z,96197
2022-10-07T12:43:34.757Z,96193
2022-10-07T12:44:44.494Z,96191
2022-10-07T12:45:52.318Z,96192
2022-10-07T12:47:02.000Z,96194
2022-10-07T12:48:11.896Z,96188
2022-10-07T12:49:19.454Z,96186
2022-10-07T12:50:27.138Z,96183
2022-10-07T12:51:36.899Z,96184
2022-10-07T12:52:46.011Z,96182
2022-10-07T12:53:55.638Z,96187
2022-10-07T12:55:03.335Z,96193
2022-10-07T12:56:12.020Z,96181
2022-10-07T12:57:21.747Z,96186
2022-10-07T12:58:30.433Z,96185
2022-10-07T12:59:39.196Z,96185
2022-10-07T13:00:47.967Z,96185
2022-10-07T13:01:56.659Z,96186
2022-10-07T13:03:06.279Z,96187
2022-10-07T13:04:14.142Z,96181
2022-10-07T13:05:23.733Z,96185
2022-10-07T13:06:33.411Z,96185
2022-10-07T13:07:42.094Z,96181
2022-10-07T13:08:49.790Z,96179
2022-10-07T13:09:58.459Z,96179
2022-10-07T13:11:07.204Z,96175
2022-10-07T13:12:16.924Z,96178
2022-10-07T13:13:24.673Z,96181
2022-10-07T13:14:33.604Z,96180
2022-10-07T13:15:43.296Z,96178
2022-10-07T13:16:52.048Z,96177
2022-10-07T13:18:01.717Z,96176
2022-10-07T13:19:11.858Z,96172
2022-10-07T13:20:22.150Z,96169
2022-10-07T13:21:31.880Z,96169
2022-10-07T13:22:39.636Z,96175
2022-10-07T13:23:48.384Z,96174
2022-10-07T13:24:58.086Z,96171
2022-10-07T13:26:05.823Z,96169
2022-10-07T13:27:14.548Z,96164
2022-10-07T13:28:23.469Z,96165
2022-10-07T13:29:32.082Z,96161
2022-10-07T13:30:41.846Z,96160
2022-10-07T13:31:48.625Z,96159
2022-10-07T13:32:58.423Z,96159
2022-10-07T13:34:08.127Z,96157
2022-10-07T13:35:15.832Z,96151
2022-10-07T13:36:24.559Z,96154
2022-10-07T13:37:34.315Z,96152
2022-10-07T13:38:44.063Z,96149
2022-10-07T13:39:53.840Z,96149
2022-10-07T13:41:01.608Z,96152
2022-10-07T13:42:10.394Z,96145
2022-10-07T13:43:21.211Z,96145
2022-10-07T13:44:28.959Z,96140
2022-10-07T13:45:37.723Z,96141
2022-10-07T13:46:46.403Z,96142
2022-10-07T13:47:56.160Z,96141
2022-10-07T13:49:05.862Z,96136
2022-10-07T13:50:13.592Z,96141
2022-10-07T13:51:22.469Z,96142
2022-10-07T13:52:32.824Z,96140
2022-10-07T13:53:40.661Z,96135
2022-10-07T13:54:50.651Z,96133
2022-10-07T13:55:59.433Z,96130
2022-10-07T13:57:12.375Z,96134
2022-10-07T13:58:18.802Z,96138
2022-10-07T13:59:26.547Z,96143
2022-10-07T14:00:35.367Z,96139
2022-10-07T14:01:45.165Z,96142
2022-10-07T14:02:54.008Z,96141
2022-10-07T14:04:02.628Z,96139
2022-10-07T14:05:11.411Z,96138
2022-10-07T14:06:20.101Z,96144
2022-10-07T14:07:29.802Z,96141
2022-10-07T14:08:37.624Z,96141
2022-10-07T14:09:46.241Z,96140
2022-10-07T14:10:55.977Z,96141
2022-10-07T14:12:05.689Z,96135
2022-10-07T14:13:15.372Z,96137
2022-10-07T14:14:24.088Z,96137
2022-10-07T14:15:33.807Z,96126
2022-10-07T14:16:43.546Z,96123
2022-10-07T14:17:52.215Z,96122
2022-10-07T14:19:01.933Z,96124
2022-10-07T14:20:11.722Z,96124
2022-10-07T14:21:19.550Z,96122
2022-10-07T14:22:29.248Z,96123
2022-10-07T14:23:37.957Z,96121
2022-10-07T14:24:47.672Z,96126
2022-10-07T14:25:57.434Z,96124
2022-10-07T14:27:07.172Z,96120
2022-10-07T14:28:15.930Z,96125
2022-10-07T14:29:25.676Z,96120
2022-10-07T14:30:33.379Z,96121
2022-10-07T14:31:43.134Z,96116
2022-10-07T14:32:51.867Z,96114
2022-10-07T14:34:00.578Z,96120
2022-10-07T14:35:09.307Z,96118
2022-10-07T14:36:18.007Z,96119
2022-10-07T14:37:31.608Z,96116
2022-10-07T14:38:37.576Z,96113
2022-10-07T14:39:46.212Z,96121
2022-10-07T14:40:55.922Z,96121
2022-10-07T14:42:03.654Z,96120
2022-10-07T14:43:12.356Z,96113
2022-10-07T14:44:21.273Z,96115
2022-10-07T14:45:29.955Z,96113
2022-10-07T14:46:39.691Z,96106
2022-10-07T14:47:47.387Z,96108
2022-10-07T14:48:57.163Z,96106
2022-10-07T14:50:05.865Z,96103